Main page
METAR-TAF:

METAR-TAF

Airports :

Imperatriz Airport

Imperatriz, Maranhão, Brazil

latitude: 05-32S, longitude: 047-30W, elevation: 123 m

Current weather observation

The report was made 6 hours and 18 minutes ago, at 21:00 UTC
Calm wind
Temperature 31°C
Humidity 71%
Pressure 1006 hPa
Visibility 10 km or more
Few clouds at a height of 2500 ft

METAR: SBIZ 192100Z 00000KT 9999 FEW025 31/25 Q1006 RETS

Time: 00:18 (03:18 UTC)

Forecast

The report was made 5 hours and 18 minutes ago, at 22:00 UTC
Forecast valid from 20 at 00 UTC to 20 at 12 UTC
Wind kt from the North
Visibility 10 km or more
no clouds below 1500 m and no cumulonimbus
Becoming
from 20 at 05 UTC to 20 at 07 UTC
Wind 5 kt from the North
Visibility 10 km or more
Broken clouds at a height of 2000 ft

TAF: SBIZ 192200Z 2000/2012 00000KT CAVOK TN25/2006Z TX28/2012Z BECMG 2005/2007 01005KT 9999 BKN020 RMK PEC

Weather observations and forecasts of more than 4000 airports (METAR and TAF reports).

The available stations are represented by yellow and red dots on the map.

Hover mouse over dot to see the name of the station.

Then click to see weather observations and forecasts.

To change the map : click on the green buttons with a black cross to zoom in, on the green button with a dash to zoom out, or on the green arrows for adjacent maps.


METAR-TAF: